Latest METARs, TAFs and NOTAMs for MYNN


---------------------------------------------------------------------------
	(OBSERVATIONS)
MYNN 231400Z 24008KT 9999 FEW020 26/19 A2997=
MYNN 231300Z 20005KT 9999 FEW020 25/20 A2996=
MYNN 231200Z 00000KT 9999 FEW020 23/20 A2995 RMK RADT 31147=
---------------------------------------------------------------------------
	(TERMINAL AREA FORECAST)
MYNN 231500Z 2318/2418 00000KT 9999 FEW025 SCT220=
---------------------------------------------------------------------------
	(NOTAMS)


MYNN A0023/14 WITH THE EXCEPTION OF MYNN AND MYGF RNAV PROC IN
    THE BAHAMAS ARE NOT AUTH DUE TO AIRSPACE CLASSIFICATION RESTRICTIONS.
    25 FEB 19:30 2014 UNTIL 26 MAY 19:30 2014. CREATED: 25 FEB
    19:18 2014

MYNN A0046/14 SIX TEMPORARY CRANES WITH RED OBSTRUCTION LIGHTS
    ON TOP LOCATION N 25 04 14.65 W 077 23 53.63 CRANES 427FT
    AMSL 3.81 NM NE OF RWY 27 ILS RWY 14, RNAV (GNSS) RWY 09
    RNAV (GNSS) RWY 14 RNAV (GNSS) RWY 32 VOR Z RWY 09 VOR Y
    RWY 09 VOR Z RWY 14 VOR Y RWY 14 VOR Z RWY 32 VOR Y RWY 32
    SRE RWY 09 SRE RWY 14 SRE RWY 32 CIRCLING CAT C OCA 860 /
    OCH 844 VIS CAT C 4600. 31 MAR 17:00 2014 UNTIL 30 JUN 21:00
    2014. CREATED: 31 MAR 16:17 2014

MYNN A0053/14 CHECKLIST (A) SERIES YEAR=2010 0241 0277 YEAR=2013
    0068 0069 0070 0183 0240 0241 0242 0258 YEAR=2014 0020 0023
    0024 0027 0034 0035 0036 0037 0038 0039 0040 0041 0041 0043
    0044 0045 0046 0047 0048 0049 0050 0051 0052 LATEST PUBLICATIONS
    AIP AMDT 02/13 EFFECTIVE 22 AUGUST 13 AIP SUP 02/13 AIC 05/13
    AIC 02/14. 30 MAR 17:00 2014 UNTIL 30 APR 21:00 2014. CREATED:
    31 MAR 16:24 2014

MYNN A0068/13 VOR Y RWY 14 FEEDER RTE FM MAJUR TO MUNIE NOT AVBL
    VOR Y RWY 14 FEEDER RTE FM MELON TO MUNIE NOT AVBL. SFC -
    UNL, 19 APR 19:55 2013 UNTIL PERM. CREATED: 19 APR 19:51
    2013

MYNN A0069/13 VOR Y RWY 09 FEEDER RTE FM MAJUR TO MUSSE NOT AVBL
    REMOVE PROCEDURE NOTE 'RADAR REQUIRED' FM APP CHART. SFC
    - UNL, 19 APR 19:55 2013 UNTIL PERM. CREATED: 19 APR 19:52
    2013

MYNN A0070/13 VOR Y RWY 32 FEEDER RTE FM PRUNE TO WELKS NOT AVBL
    REMOVE PROCEDURE NOTE 'RADAR REQUIRED' FM APP CHART. SFC
    - UNL, 19 APR 19:55 2013 UNTIL PERM. CREATED: 19 APR 19:54
    2013

MYNN A0258/13 PLEASE BE ADZ NEW GATING PLAN AT MYNN: APN 2 -
    UNCHANGED APN 3 - A13, A14, A15, B16, B17, B18, B18L, B19,
    B20, B21 AND B22 APN 4 - R12, A1 THROUGH A12 APN 5 - R1 THROUGH
    R11. 23 OCT 00:00 2013 UNTIL PERM. CREATED: 22 OCT 17:30
    2013

---------------------------------------------------------------------------